Atherton, CA (94027)

9:19 PM PST on February 11, 2016 (GMT -0800)
West Atherton | | Change Station
CLOSE
Current Station
Personal Weather Station
Location: Atherton, CA
Elevation: 53 ft
Nearby Weather Stations

Elev 53 ft 37.45 °N, 122.20 °W | Updated 4 minutes ago

Mostly Cloudy
Mostly Cloudy
54.0 °F
Feels Like 54.0 °F
N
-
Wind Variable Wind from North

Today
High -- | Low -- °F
--% Chance of Precip.
Yesterday
High -- | Low -- °F
Precip. -- in
Pressure 30.18 in
Visibility 10.0 miles
Clouds Clear
Dew Point 53 °F
Humidity 96%
Rainfall Not available.
Snow Depth Not available.
7:02 AM 5:43 PM
Waxing Crescent, 17% visible
METAR KSQL 120515Z AUTO 00000KT 10SM CLR 13/12 A3018 RMK AO2
Pressure 30.18 in
Visibility 10.0 miles
Clouds Clear
Dew Point 53 °F
Humidity 96%
Rainfall Not available.
Snow Depth Not available.
7:02 AM 5:43 PM
Waxing Crescent, 17% visible
METAR KSQL 120515Z AUTO 00000KT 10SM CLR 13/12 A3018 RMK AO2

10-Day Weather Forecast

Almanac

Astronomy

Feb. 11, 2016 Rise Set
Actual Time
Civil Twilight
Nautical Twilight
Astronomical Twilight
Moon
Length of Visible Light
Length of Day
Tomorrow will be .
, % of the Moon is Illuminated

Today's Extremes

State Highs State Lows

Community

WunderPhotos

Upload Photos

1,892,265 photos uploaded!

WunderBlog® & News

Nearby

Air Quality

  Air Quality AQ Index Pollutant
Not available.

Snow Depth

Station Depth Elevation

Earthquake Activity

City Distance Mag. Time & Date
Minimum magnitude displayed is 2.5.

Coastal Water Temperatures

Place Temperature

Stations

Nearby Weather Stations

Station Location Temp. Windchill Dew Point Humidity Wind Precip. Elev Updated Type
                   

Watches & Warnings

There are currently no watches in effect.